createdAt,value
2018-02-09T00:00:47.296Z,-3.29
2018-02-09T00:01:57.016Z,-3.37
2018-02-09T00:03:07.103Z,-3.29
2018-02-09T00:04:17.086Z,-3.32
2018-02-09T00:05:27.064Z,-3.36
2018-02-09T00:06:37.047Z,-3.37
2018-02-09T00:07:46.496Z,-3.43
2018-02-09T00:08:56.210Z,-3.41
2018-02-09T00:10:06.191Z,-3.41
2018-02-09T00:11:15.902Z,-3.37
2018-02-09T00:12:25.881Z,-3.4
2018-02-09T00:13:35.330Z,-3.47
2018-02-09T00:14:45.354Z,-3.47
2018-02-09T00:15:54.805Z,-3.46
2018-02-09T00:17:04.516Z,-3.59
2018-02-09T00:18:14.236Z,-3.48
2018-02-09T00:19:24.216Z,-3.58
2018-02-09T00:20:33.809Z,-3.59
2018-02-09T00:21:43.787Z,-3.69
2018-02-09T00:22:53.240Z,-3.74
2018-02-09T00:24:03.215Z,-3.8
2018-02-09T00:25:12.926Z,-3.9
2018-02-09T00:26:22.955Z,-3.95
2018-02-09T00:27:32.670Z,-3.98
2018-02-09T00:28:42.651Z,-3.95
2018-02-09T00:29:52.371Z,-3.94
2018-02-09T00:31:02.351Z,-3.99
2018-02-09T00:32:11.534Z,-3.98
2018-02-09T00:33:21.245Z,-3.88
2018-02-09T00:34:30.431Z,-3.87
2018-02-09T00:35:40.416Z,-4.04
2018-02-09T00:36:49.875Z,-3.94
2018-02-09T00:37:59.614Z,-4.05
2018-02-09T00:39:09.334Z,-3.87
2018-02-09T00:40:18.786Z,-3.98
2018-02-09T00:41:28.509Z,-3.9
2018-02-09T00:42:38.221Z,-3.9
2018-02-09T00:43:47.937Z,-3.94
2018-02-09T00:44:57.928Z,-3.85
2018-02-09T00:46:07.905Z,-3.75
2018-02-09T00:47:17.620Z,-3.75
2018-02-09T00:48:27.073Z,-3.75
2018-02-09T00:49:37.056Z,-3.75
2018-02-09T00:50:47.038Z,-3.69
2018-02-09T00:51:57.021Z,-3.68
2018-02-09T00:53:07.005Z,-3.61
2018-02-09T00:54:16.990Z,-3.56
2018-02-09T00:55:26.443Z,-3.59
2018-02-09T00:56:36.421Z,-3.59
2018-02-09T00:57:46.401Z,-3.61
2018-02-09T00:58:56.119Z,-3.48
2018-02-09T01:00:06.103Z,-3.48
2018-02-09T01:01:15.818Z,-3.48
2018-02-09T01:02:25.799Z,-3.41
2018-02-09T01:03:35.514Z,-3.37
2018-02-09T01:04:45.499Z,-3.36
2018-02-09T01:05:55.483Z,-3.37
2018-02-09T01:07:05.464Z,-3.36
2018-02-09T01:08:14.971Z,-3.33
2018-02-09T01:09:24.422Z,-3.36
2018-02-09T01:10:34.404Z,-3.27
2018-02-09T01:11:44.431Z,-3.32
2018-02-09T01:12:54.415Z,-3.27
2018-02-09T01:14:03.870Z,-3.25
2018-02-09T01:15:13.322Z,-3.26
2018-02-09T01:16:23.035Z,-3.27
2018-02-09T01:17:32.750Z,-3.17
2018-02-09T01:18:42.566Z,-3.11
2018-02-09T01:19:52.550Z,-3.19
2018-02-09T01:21:02.279Z,-3.2
2018-02-09T01:22:11.194Z,-3.2
2018-02-09T01:23:20.913Z,-3.09
2018-02-09T01:24:30.897Z,-3.14
2018-02-09T01:25:40.614Z,-3.12
2018-02-09T01:26:50.596Z,-3.08
2018-02-09T01:28:00.580Z,-3.08
2018-02-09T01:29:10.293Z,-3.15
2018-02-09T01:30:20.008Z,-3.15
2018-02-09T01:31:29.763Z,-3.07
2018-02-09T01:32:39.483Z,-3.05
2018-02-09T01:33:49.243Z,-3.08
2018-02-09T01:34:58.959Z,-3.12
2018-02-09T01:36:08.412Z,-3.26
2018-02-09T01:37:18.133Z,-3.36
2018-02-09T01:38:28.109Z,-3.56
2018-02-09T01:39:38.092Z,-3.5
2018-02-09T01:40:48.080Z,-3.61
2018-02-09T01:41:58.065Z,-3.56
2018-02-09T01:43:07.779Z,-3.65
2018-02-09T01:44:17.756Z,-3.62
2018-02-09T01:45:27.732Z,-3.62
2018-02-09T01:46:37.503Z,-3.55
2018-02-09T01:47:47.499Z,-3.55
2018-02-09T01:48:57.481Z,-3.58
2018-02-09T01:50:07.200Z,-3.56
2018-02-09T01:51:17.178Z,-3.56
2018-02-09T01:52:26.629Z,-3.48
2018-02-09T01:53:36.347Z,-3.48
2018-02-09T01:54:46.325Z,-3.43
2018-02-09T01:55:56.039Z,-3.47
2018-02-09T01:57:06.015Z,-3.44
2018-02-09T01:58:15.733Z,-3.48
2018-02-09T01:59:25.231Z,-3.48
2018-02-09T02:00:34.944Z,-3.47
2018-02-09T02:01:44.651Z,-3.47
2018-02-09T02:02:54.096Z,-3.46
2018-02-09T02:04:04.082Z,-3.48
2018-02-09T02:05:14.059Z,-3.4
2018-02-09T02:06:24.038Z,-3.4
2018-02-09T02:07:34.016Z,-3.36
2018-02-09T02:08:43.995Z,-3.38
2018-02-09T02:09:53.973Z,-3.41
2018-02-09T02:11:03.683Z,-3.4
2018-02-09T02:12:13.134Z,-3.33
2018-02-09T02:13:22.848Z,-3.2
2018-02-09T02:14:32.830Z,-3.25
2018-02-09T02:15:42.542Z,-3.3
2018-02-09T02:16:52.528Z,-3.26
2018-02-09T02:18:02.250Z,-3.25
2018-02-09T02:19:11.967Z,-3.17
2018-02-09T02:20:21.949Z,-3.17
2018-02-09T02:21:31.669Z,-3.19
2018-02-09T02:22:41.433Z,-3.12
2018-02-09T02:23:51.410Z,-3.08
2018-02-09T02:25:00.858Z,-3.19
2018-02-09T02:26:10.307Z,-3.22
2018-02-09T02:27:20.285Z,-3.2
2018-02-09T02:28:29.576Z,-3.17
2018-02-09T02:29:39.573Z,-3.07
2018-02-09T02:30:49.565Z,-3.12
2018-02-09T02:31:59.548Z,-3.15
2018-02-09T02:33:09.268Z,-3.14
2018-02-09T02:34:18.995Z,-3.09
2018-02-09T02:35:28.719Z,-3.08
2018-02-09T02:36:38.711Z,-3.08
2018-02-09T02:37:48.423Z,-3.12
2018-02-09T02:38:58.146Z,-3.08
2018-02-09T02:40:07.863Z,-3.08
2018-02-09T02:41:17.859Z,-3.09
2018-02-09T02:42:27.845Z,-3.04
2018-02-09T02:43:37.559Z,-3.02
2018-02-09T02:44:47.562Z,-2.99
2018-02-09T02:45:57.539Z,-3.01
2018-02-09T02:47:07.530Z,-2.91
2018-02-09T02:48:17.247Z,-2.94
2018-02-09T02:49:26.968Z,-2.89
2018-02-09T02:50:36.692Z,-2.86
2018-02-09T02:51:46.685Z,-2.86
2018-02-09T02:52:56.673Z,-2.89
2018-02-09T02:54:06.657Z,-2.78
2018-02-09T02:55:16.367Z,-2.8
2018-02-09T02:56:26.091Z,-2.76
2018-02-09T02:57:35.812Z,-2.68
2018-02-09T02:58:45.801Z,-2.66
2018-02-09T02:59:55.544Z,-2.58
2018-02-09T03:01:05.266Z,-2.51
2018-02-09T03:02:15.277Z,-2.36
2018-02-09T03:03:25.261Z,-2.42
2018-02-09T03:04:34.977Z,-2.42
2018-02-09T03:05:44.957Z,-2.32
2018-02-09T03:06:54.938Z,-2.37
2018-02-09T03:08:04.925Z,-2.25
2018-02-09T03:09:14.646Z,-2.22
2018-02-09T03:10:24.639Z,-2.22
2018-02-09T03:11:34.349Z,-2.23
2018-02-09T03:12:44.337Z,-2.2
2018-02-09T03:13:54.309Z,-2.28
2018-02-09T03:15:04.287Z,-2.33
2018-02-09T03:16:14.269Z,-2.33
2018-02-09T03:17:24.252Z,-2.32
2018-02-09T03:18:33.974Z,-2.36
2018-02-09T03:19:43.428Z,-2.39
2018-02-09T03:20:53.420Z,-2.34
2018-02-09T03:22:03.184Z,-2.34
2018-02-09T03:23:13.197Z,-2.36
2018-02-09T03:24:23.174Z,-2.36
2018-02-09T03:25:33.156Z,-2.28
2018-02-09T03:26:43.175Z,-2.34
2018-02-09T03:27:52.887Z,-2.26
2018-02-09T03:29:02.869Z,-2.2
2018-02-09T03:30:12.588Z,-2.15
2018-02-09T03:31:22.312Z,-2.11
2018-02-09T03:32:32.292Z,-2.13
2018-02-09T03:33:42.272Z,-2
2018-02-09T03:34:52.254Z,-1.97
2018-02-09T03:36:01.972Z,-1.92
2018-02-09T03:37:11.705Z,-1.84
2018-02-09T03:38:21.430Z,-1.75
2018-02-09T03:39:31.412Z,-1.87
2018-02-09T03:40:41.391Z,-1.99
2018-02-09T03:41:50.837Z,-2.13
2018-02-09T03:43:00.551Z,-2.36
2018-02-09T03:44:10.007Z,-2.4
2018-02-09T03:45:19.986Z,-2.57
2018-02-09T03:46:29.698Z,-2.57
2018-02-09T03:47:39.678Z,-2.66
2018-02-09T03:48:49.396Z,-2.69
2018-02-09T03:49:58.845Z,-2.69
2018-02-09T03:51:08.827Z,-2.65
2018-02-09T03:52:18.860Z,-2.66
2018-02-09T03:53:28.844Z,-2.66
2018-02-09T03:54:38.824Z,-2.65
2018-02-09T03:55:48.537Z,-2.57
2018-02-09T03:56:58.518Z,-2.55
2018-02-09T03:58:07.706Z,-2.52
2018-02-09T03:59:17.423Z,-2.5
2018-02-09T04:03:25.517Z,-2.45
2018-02-09T04:04:35.232Z,-2.48
2018-02-09T04:05:44.952Z,-2.4
2018-02-09T04:06:54.930Z,-2.39
2018-02-09T04:08:04.652Z,-2.32
2018-02-09T04:09:14.374Z,-2.29
2018-02-09T04:10:24.407Z,-2.33
2018-02-09T04:11:34.118Z,-2.39
2018-02-09T04:12:43.832Z,-2.34
2018-02-09T04:13:53.819Z,-2.32
2018-02-09T04:15:03.538Z,-2.42
2018-02-09T04:16:13.260Z,-2.25
2018-02-09T04:17:23.236Z,-2.33
2018-02-09T04:18:33.225Z,-2.29
2018-02-09T04:19:42.954Z,-2.32
2018-02-09T04:20:52.936Z,-2.28
2018-02-09T04:22:02.650Z,-2.26
2018-02-09T04:23:12.103Z,-2.23
2018-02-09T04:24:21.815Z,-2.42
2018-02-09T04:25:31.534Z,-2.32
2018-02-09T04:26:41.511Z,-2.23
2018-02-09T04:27:51.234Z,-2.25
2018-02-09T04:29:01.221Z,-2.2
2018-02-09T04:30:10.671Z,-2.17
2018-02-09T04:31:20.497Z,-2.13
2018-02-09T04:32:29.911Z,-2.13
2018-02-09T04:33:39.893Z,-2.07
2018-02-09T04:34:49.902Z,-2
2018-02-09T04:35:59.882Z,-2.02
2018-02-09T04:37:09.335Z,-2.05
2018-02-09T04:38:19.053Z,-1.96
2018-02-09T04:39:29.041Z,-1.9
2018-02-09T04:40:39.019Z,-1.94
2018-02-09T04:41:48.745Z,-1.78
2018-02-09T04:42:58.721Z,-1.72
2018-02-09T04:44:08.699Z,-1.68
2018-02-09T04:45:18.418Z,-1.74
2018-02-09T04:46:27.921Z,-1.61
2018-02-09T04:47:37.633Z,-1.66
2018-02-09T04:48:47.086Z,-1.68
2018-02-09T04:49:57.066Z,-1.54
2018-02-09T04:51:06.797Z,-1.61
2018-02-09T04:52:16.526Z,-1.53
2018-02-09T04:53:26.252Z,-1.56
2018-02-09T04:54:36.236Z,-1.48
2018-02-09T04:55:46.223Z,-1.64
2018-02-09T04:56:56.206Z,-1.64
2018-02-09T04:58:05.926Z,-1.64
2018-02-09T04:59:15.646Z,-1.51
2018-02-09T05:00:25.357Z,-1.5
2018-02-09T05:01:35.332Z,-1.48
2018-02-09T05:02:45.051Z,-1.56
2018-02-09T05:03:55.119Z,-1.53
2018-02-09T05:05:05.105Z,-1.53
2018-02-09T05:06:14.562Z,-1.43
2018-02-09T05:07:24.541Z,-1.46
2018-02-09T05:08:34.522Z,-1.43
2018-02-09T05:09:43.977Z,-1.46
2018-02-09T05:10:53.952Z,-1.35
2018-02-09T05:12:03.932Z,-1.38
2018-02-09T05:13:13.910Z,-1.42
2018-02-09T05:14:23.900Z,-1.3
2018-02-09T05:15:33.350Z,-1.21
2018-02-09T05:16:43.334Z,-1.24
2018-02-09T05:17:53.320Z,-1.11
2018-02-09T05:19:03.295Z,-1.11
2018-02-09T05:20:13.012Z,-1.04
2018-02-09T05:21:22.728Z,-1.04
2018-02-09T05:22:32.706Z,-0.97
2018-02-09T05:23:42.689Z,-0.99
2018-02-09T05:24:52.671Z,-0.89
2018-02-09T05:26:02.444Z,-0.78
2018-02-09T05:27:12.432Z,-0.75
2018-02-09T05:28:22.414Z,-0.69
2018-02-09T05:29:32.407Z,-0.56
2018-02-09T05:30:42.127Z,-0.57
2018-02-09T05:31:51.846Z,-0.51
2018-02-09T05:33:01.563Z,-0.46
2018-02-09T05:34:11.402Z,-0.45
2018-02-09T05:35:21.121Z,-0.45
2018-02-09T05:36:30.839Z,-0.45
2018-02-09T05:37:40.822Z,-0.48
2018-02-09T05:38:50.806Z,-0.39
2018-02-09T05:40:00.531Z,-0.36
2018-02-09T05:41:10.258Z,-0.39
2018-02-09T05:42:20.239Z,-0.31
2018-02-09T05:43:29.964Z,-0.3
2018-02-09T05:44:39.418Z,-0.2
2018-02-09T05:45:49.402Z,-0.21
2018-02-09T05:46:59.117Z,-0.18
2018-02-09T05:48:08.833Z,-0.06
2018-02-09T05:49:18.285Z,-0.12
2018-02-09T05:50:28.267Z,-0.07
2018-02-09T05:51:38.252Z,0.06
2018-02-09T05:52:47.977Z,0.13
2018-02-09T05:53:57.951Z,0.2
2018-02-09T05:55:07.935Z,0.3
2018-02-09T05:56:17.923Z,0.36
2018-02-09T05:57:27.920Z,0.37
2018-02-09T05:58:37.901Z,0.37
2018-02-09T05:59:47.879Z,0.48
2018-02-09T06:00:57.600Z,0.49
2018-02-09T06:02:07.402Z,0.48
2018-02-09T06:03:17.389Z,0.47
2018-02-09T06:04:27.370Z,0.63
2018-02-09T06:05:37.358Z,0.66
2018-02-09T06:06:47.077Z,0.63
2018-02-09T06:07:57.066Z,0.7
2018-02-09T06:09:07.047Z,0.74
2018-02-09T06:10:17.028Z,0.81
2018-02-09T06:11:27.034Z,0.81
2018-02-09T06:12:36.222Z,0.92
2018-02-09T06:13:45.951Z,0.92
2018-02-09T06:14:55.991Z,0.86
2018-02-09T06:16:05.711Z,0.84
2018-02-09T06:17:15.696Z,0.86
2018-02-09T06:18:25.677Z,0.95
2018-02-09T06:19:35.655Z,1
2018-02-09T06:20:45.373Z,1.02
2018-02-09T06:21:55.367Z,1.09
2018-02-09T06:23:05.399Z,1.12
2018-02-09T06:24:14.857Z,1.06
2018-02-09T06:25:24.574Z,1.1
2018-02-09T06:26:34.293Z,1.1
2018-02-09T06:27:44.327Z,1.07
2018-02-09T06:28:54.307Z,1.13
2018-02-09T06:30:04.287Z,1.07
2018-02-09T06:31:14.040Z,1.09
2018-02-09T06:32:24.026Z,1.09
2018-02-09T06:33:34.016Z,1.07
2018-02-09T06:34:43.995Z,1.1
2018-02-09T06:35:53.720Z,1.06
2018-02-09T06:37:03.726Z,1.04
2018-02-09T06:38:13.712Z,1.03
2018-02-09T06:39:23.694Z,1.13
2018-02-09T06:40:33.408Z,1.02
2018-02-09T06:41:43.120Z,1.02
2018-02-09T06:42:52.838Z,0.99
2018-02-09T06:44:02.817Z,0.96
2018-02-09T06:45:12.533Z,0.95
2018-02-09T06:46:22.518Z,0.91
2018-02-09T06:47:32.232Z,0.95
2018-02-09T06:48:42.217Z,0.96
2018-02-09T06:49:52.197Z,0.91
2018-02-09T06:51:01.650Z,0.94
2018-02-09T06:52:11.366Z,0.99
2018-02-09T06:53:21.130Z,1
2018-02-09T06:54:31.112Z,1.03
2018-02-09T06:55:41.100Z,1.02
2018-02-09T06:56:51.122Z,1.03
2018-02-09T06:58:01.104Z,0.89
2018-02-09T06:59:10.298Z,0.95
2018-02-09T07:00:20.023Z,1.02
2018-02-09T07:01:29.738Z,1.06
2018-02-09T07:02:39.718Z,1.02
2018-02-09T07:03:49.432Z,0.96
2018-02-09T07:04:59.143Z,1
2018-02-09T07:06:09.129Z,0.96
2018-02-09T07:07:18.849Z,0.96
2018-02-09T07:08:28.303Z,0.88
2018-02-09T07:09:38.282Z,0.89
2018-02-09T07:10:47.999Z,0.86
2018-02-09T07:11:57.714Z,0.96
2018-02-09T07:13:07.434Z,0.88
2018-02-09T07:14:17.411Z,0.94
2018-02-09T07:15:27.393Z,0.92
2018-02-09T07:16:37.374Z,0.77
2018-02-09T07:17:47.407Z,0.94
2018-02-09T07:18:57.119Z,0.89
2018-02-09T07:20:06.837Z,0.77
2018-02-09T07:21:16.820Z,0.91
2018-02-09T07:22:26.534Z,0.91
2018-02-09T07:23:36.249Z,0.91
2018-02-09T07:24:46.290Z,0.91
2018-02-09T07:25:56.010Z,0.89
2018-02-09T07:27:05.461Z,0.89
2018-02-09T07:28:14.914Z,0.91
2018-02-09T07:29:24.894Z,0.94
2018-02-09T07:30:34.876Z,0.88
2018-02-09T07:31:44.602Z,0.88
2018-02-09T07:32:54.369Z,0.94
2018-02-09T07:34:04.345Z,0.95
2018-02-09T07:35:14.330Z,0.94
2018-02-09T07:36:24.050Z,0.94
2018-02-09T07:37:33.763Z,0.92
2018-02-09T07:38:43.211Z,0.88
2018-02-09T07:39:52.924Z,0.91
2018-02-09T07:41:02.652Z,0.88
2018-02-09T07:42:12.368Z,0.99
2018-02-09T07:43:22.092Z,0.92
2018-02-09T07:44:31.884Z,0.96
2018-02-09T07:45:41.340Z,1
2018-02-09T07:46:50.860Z,1
2018-02-09T07:48:00.579Z,1.06
2018-02-09T07:49:10.300Z,1.07
2018-02-09T07:50:20.276Z,1
2018-02-09T07:51:29.987Z,1.03
2018-02-09T07:52:39.702Z,0.94
2018-02-09T07:53:49.414Z,1
2018-02-09T07:54:59.394Z,1
2018-02-09T07:56:09.375Z,1.03
2018-02-09T07:57:19.352Z,0.96
2018-02-09T07:58:29.069Z,1.02
2018-02-09T07:59:39.057Z,0.95
2018-02-09T08:00:49.040Z,0.99
2018-02-09T08:01:59.019Z,0.82
2018-02-09T08:03:08.735Z,0.99
2018-02-09T08:04:18.723Z,0.88
2018-02-09T08:05:28.180Z,0.86
2018-02-09T08:06:37.909Z,0.81
2018-02-09T08:07:47.883Z,0.84
2018-02-09T08:08:57.599Z,0.84
2018-02-09T08:10:07.588Z,0.85
2018-02-09T08:11:17.302Z,0.85
2018-02-09T08:12:27.282Z,0.91
2018-02-09T08:13:37.006Z,0.86
2018-02-09T08:14:46.774Z,0.85
2018-02-09T08:15:56.752Z,0.84
2018-02-09T08:17:06.200Z,0.84
2018-02-09T08:18:16.196Z,0.91
2018-02-09T08:19:26.174Z,0.76
2018-02-09T08:20:35.630Z,0.84
2018-02-09T08:21:45.614Z,0.84
2018-02-09T08:22:55.339Z,0.78
2018-02-09T08:24:05.056Z,0.82
2018-02-09T08:25:14.771Z,0.84
2018-02-09T08:26:24.222Z,0.81
2018-02-09T08:27:33.941Z,0.85
2018-02-09T08:28:43.654Z,0.82
2018-02-09T08:29:53.369Z,0.76
2018-02-09T08:31:03.362Z,0.86
2018-02-09T08:32:13.079Z,0.95
2018-02-09T08:33:22.262Z,0.86
2018-02-09T08:34:32.495Z,0.82
2018-02-09T08:35:42.483Z,0.86
2018-02-09T08:36:52.201Z,0.85
2018-02-09T08:38:02.183Z,0.86
2018-02-09T08:39:12.168Z,0.88
2018-02-09T08:40:21.889Z,0.91
2018-02-09T08:41:31.872Z,0.89
2018-02-09T08:42:41.588Z,0.91
2018-02-09T08:43:51.575Z,0.94
2018-02-09T08:45:01.290Z,0.96
2018-02-09T08:46:11.015Z,1
2018-02-09T08:47:20.737Z,0.99
2018-02-09T08:48:30.604Z,0.94
2018-02-09T08:49:40.587Z,1.02
2018-02-09T08:50:50.304Z,1
2018-02-09T08:51:59.488Z,1.03
2018-02-09T08:53:09.473Z,1.02
2018-02-09T08:54:18.970Z,1.1
2018-02-09T08:55:28.160Z,1.09
2018-02-09T08:56:37.881Z,1.03
2018-02-09T08:57:47.856Z,1.12
2018-02-09T08:58:57.044Z,1.16
2018-02-09T09:00:07.028Z,1.12
2018-02-09T09:01:17.011Z,1.13
2018-02-09T09:02:26.997Z,1.09
2018-02-09T09:03:36.721Z,1.25
2018-02-09T09:04:46.441Z,1.24
2018-02-09T09:05:55.890Z,1.27
2018-02-09T09:07:05.610Z,1.22
2018-02-09T09:08:15.070Z,1.25
2018-02-09T09:09:25.074Z,1.36
2018-02-09T09:10:35.055Z,1.24
2018-02-09T09:11:45.039Z,1.3
2018-02-09T09:12:54.759Z,1.42
2018-02-09T09:14:04.474Z,1.49
2018-02-09T09:15:14.459Z,1.48
2018-02-09T09:16:24.176Z,1.49
2018-02-09T09:17:33.888Z,1.5
2018-02-09T09:18:43.339Z,1.53
2018-02-09T09:19:53.323Z,1.58
2018-02-09T09:21:03.326Z,1.58
2018-02-09T09:22:13.040Z,1.67
2018-02-09T09:23:22.760Z,1.67
2018-02-09T09:24:32.480Z,1.67
2018-02-09T09:25:42.199Z,1.61
2018-02-09T09:26:51.915Z,1.63
2018-02-09T09:28:01.977Z,1.71
2018-02-09T09:29:11.971Z,1.63
2018-02-09T09:30:21.948Z,1.63
2018-02-09T09:31:31.672Z,1.67
2018-02-09T09:32:41.127Z,1.64
2018-02-09T09:33:50.843Z,1.58
2018-02-09T09:35:00.834Z,1.66
2018-02-09T09:36:10.287Z,1.68
2018-02-09T09:37:20.272Z,1.71
2018-02-09T09:38:29.991Z,1.68
2018-02-09T09:39:39.710Z,1.71
2018-02-09T09:40:49.694Z,1.63
2018-02-09T09:41:59.153Z,1.63
2018-02-09T09:43:08.869Z,1.64
2018-02-09T09:44:18.853Z,1.67
2018-02-09T09:45:28.307Z,1.57
2018-02-09T09:46:38.302Z,1.6
2018-02-09T09:47:48.018Z,1.64
2018-02-09T09:48:57.998Z,1.63
2018-02-09T09:50:07.983Z,1.6
2018-02-09T09:51:17.701Z,1.53
2018-02-09T09:52:26.934Z,1.6
2018-02-09T09:53:36.920Z,1.6
2018-02-09T09:54:46.898Z,1.58
2018-02-09T09:55:56.350Z,1.6
2018-02-09T09:57:06.064Z,1.64
2018-02-09T09:58:15.528Z,1.74
2018-02-09T09:59:24.980Z,1.66
2018-02-09T10:00:34.695Z,1.6
2018-02-09T10:01:44.674Z,1.67
2018-02-09T10:02:53.864Z,1.66
2018-02-09T10:04:03.856Z,1.74
2018-02-09T10:05:13.846Z,1.67
2018-02-09T10:06:23.297Z,1.71
2018-02-09T10:07:33.028Z,1.82
2018-02-09T10:08:42.216Z,1.79
2018-02-09T10:09:51.926Z,1.7
2018-02-09T10:11:01.910Z,1.75
2018-02-09T10:12:11.362Z,1.71
2018-02-09T10:13:21.352Z,1.75
2018-02-09T10:14:30.540Z,1.7
2018-02-09T10:15:40.530Z,1.81
2018-02-09T10:16:50.297Z,1.84
2018-02-09T10:18:00.279Z,1.84
2018-02-09T10:19:09.733Z,1.85
2018-02-09T10:20:19.714Z,1.81
2018-02-09T10:21:29.442Z,1.86
2018-02-09T10:22:38.640Z,1.85
2018-02-09T10:23:48.366Z,1.84
2018-02-09T10:24:58.359Z,1.85
2018-02-09T10:26:07.823Z,1.81
2018-02-09T10:27:17.817Z,1.84
2018-02-09T10:28:27.537Z,1.7
2018-02-09T10:29:37.516Z,1.78
2018-02-09T10:30:47.308Z,1.7
2018-02-09T10:31:57.038Z,1.7
2018-02-09T10:33:06.757Z,1.61
2018-02-09T10:34:16.482Z,1.63
2018-02-09T10:35:26.463Z,1.66
2018-02-09T10:36:35.918Z,1.56
2018-02-09T10:37:45.899Z,1.58
2018-02-09T10:38:55.669Z,1.63
2018-02-09T10:40:05.385Z,1.56
2018-02-09T10:41:15.104Z,1.58
2018-02-09T10:42:25.087Z,1.56
2018-02-09T10:43:34.808Z,1.49
2018-02-09T10:44:44.797Z,1.48
2018-02-09T10:45:54.776Z,1.52
2018-02-09T10:47:04.498Z,1.53
2018-02-09T10:48:14.477Z,1.52
2018-02-09T10:49:24.460Z,1.48
2018-02-09T10:50:34.446Z,1.38
2018-02-09T10:51:44.166Z,1.32
2018-02-09T10:52:54.156Z,1.36
2018-02-09T10:54:03.871Z,1.43
2018-02-09T10:55:13.850Z,1.4
2018-02-09T10:56:23.840Z,1.34
2018-02-09T10:57:33.296Z,1.36
2018-02-09T10:58:43.280Z,1.4
2018-02-09T10:59:52.740Z,1.42
2018-02-09T11:01:02.508Z,1.32
2018-02-09T11:02:12.487Z,1.36
2018-02-09T11:03:22.471Z,1.34
2018-02-09T11:04:32.453Z,1.38
2018-02-09T11:05:42.447Z,1.32
2018-02-09T11:06:52.165Z,1.34
2018-02-09T11:08:02.210Z,1.32
2018-02-09T11:09:12.190Z,1.28
2018-02-09T11:10:21.908Z,1.27
2018-02-09T11:11:31.894Z,1.28
2018-02-09T11:12:41.916Z,1.3
2018-02-09T11:13:51.902Z,1.25
2018-02-09T11:15:01.896Z,1.27
2018-02-09T11:16:11.396Z,1.24
2018-02-09T11:17:21.453Z,1.22
2018-02-09T11:18:30.908Z,1.28
2018-02-09T11:19:40.734Z,1.21
2018-02-09T11:20:50.449Z,1.24
2018-02-09T11:22:00.167Z,1.25
2018-02-09T11:23:09.882Z,1.28
2018-02-09T11:24:19.606Z,1.22
2018-02-09T11:25:29.592Z,1.27
2018-02-09T11:26:39.574Z,1.21
2018-02-09T11:27:49.553Z,1.25
2018-02-09T11:28:59.532Z,1.18
2018-02-09T11:30:08.984Z,1.18
2018-02-09T11:31:18.972Z,1.24
2018-02-09T11:32:28.986Z,1.2
2018-02-09T11:33:38.703Z,1.13
2018-02-09T11:34:48.421Z,1.13
2018-02-09T11:35:58.437Z,1.16
2018-02-09T11:37:07.897Z,1.2
2018-02-09T11:38:17.908Z,1.14
2018-02-09T11:39:27.622Z,1.14
2018-02-09T11:40:37.340Z,1.12
2018-02-09T11:41:47.323Z,1.09
2018-02-09T11:42:57.303Z,1.1
2018-02-09T11:44:06.761Z,1.16
2018-02-09T11:45:16.480Z,1.12
2018-02-09T11:46:26.466Z,1.1
2018-02-09T11:47:35.653Z,1.14
2018-02-09T11:48:45.105Z,1.12
2018-02-09T11:49:54.818Z,1.09
2018-02-09T11:51:04.817Z,1.1
2018-02-09T11:52:14.850Z,1.07
2018-02-09T11:53:24.568Z,1.06
2018-02-09T11:54:34.284Z,1.07
2018-02-09T11:55:43.999Z,1.06
2018-02-09T11:56:53.985Z,1.14
2018-02-09T11:58:03.699Z,1.12
2018-02-09T11:59:13.424Z,1.1
2018-02-09T12:00:23.410Z,1.16
2018-02-09T12:01:32.599Z,1.14
2018-02-09T12:02:42.051Z,1.12
2018-02-09T12:03:51.778Z,1.12
2018-02-09T12:05:01.494Z,1.18
2018-02-09T12:06:11.215Z,1.06
2018-02-09T12:07:21.198Z,1.21
2018-02-09T12:08:31.178Z,1.24
2018-02-09T12:09:41.161Z,1.22
2018-02-09T12:10:50.878Z,1.1
2018-02-09T12:12:00.331Z,1.06
2018-02-09T12:13:10.312Z,1.12
2018-02-09T12:14:20.035Z,1.14
2018-02-09T12:15:29.763Z,1.14
2018-02-09T12:16:39.863Z,1.1
2018-02-09T12:17:49.850Z,1.07
2018-02-09T12:18:59.299Z,1.14
2018-02-09T12:20:09.016Z,1.07
2018-02-09T12:21:18.742Z,1.06
2018-02-09T12:22:28.721Z,1.16
2018-02-09T12:23:38.172Z,1.12
2018-02-09T12:24:48.153Z,1.14
2018-02-09T12:25:58.134Z,1.07
2018-02-09T12:27:07.850Z,1.1
2018-02-09T12:28:17.681Z,1.13
2018-02-09T12:29:27.663Z,1.21
2018-02-09T12:30:37.650Z,1.16
2018-02-09T12:31:47.366Z,1.2
2018-02-09T12:32:57.080Z,1.18
2018-02-09T12:34:07.064Z,1.21
2018-02-09T12:35:17.054Z,1.24
2018-02-09T12:36:26.770Z,1.13
2018-02-09T12:37:36.229Z,1.2
2018-02-09T12:38:45.947Z,1.18
2018-02-09T12:39:55.932Z,1.12
2018-02-09T12:41:05.656Z,1.2
2018-02-09T12:42:15.410Z,1.07
2018-02-09T12:43:24.928Z,1.16
2018-02-09T12:44:33.850Z,1.21
2018-02-09T12:45:43.829Z,1.13
2018-02-09T12:46:53.553Z,1.12
2018-02-09T12:48:03.008Z,1.24
2018-02-09T12:49:12.995Z,1.13
2018-02-09T12:50:22.974Z,1.24
2018-02-09T12:51:32.954Z,1.28
2018-02-09T12:52:42.667Z,1.12
2018-02-09T12:53:52.649Z,1.14
2018-02-09T12:55:02.101Z,1.14
2018-02-09T12:56:11.288Z,1.13
2018-02-09T12:57:21.275Z,1.09
2018-02-09T12:58:31.316Z,1.24
2018-02-09T12:59:41.036Z,1.14
2018-02-09T13:00:50.755Z,1.21
2018-02-09T13:02:00.477Z,1.24
2018-02-09T13:03:10.459Z,1.2
2018-02-09T13:04:20.177Z,1.14
2018-02-09T13:05:29.631Z,1.21
2018-02-09T13:06:39.345Z,1.1
2018-02-09T13:07:49.065Z,1.13
2018-02-09T13:08:58.779Z,1.16
2018-02-09T13:10:08.760Z,1.1
2018-02-09T13:11:18.471Z,1.22
2018-02-09T13:12:27.927Z,1.24
2018-02-09T13:13:37.639Z,1.13
2018-02-09T13:14:47.631Z,1.21
2018-02-09T13:15:57.615Z,1.12
2018-02-09T13:17:07.660Z,1.13
2018-02-09T13:18:17.646Z,1.24
2018-02-09T13:19:27.359Z,1.24
2018-02-09T13:20:37.346Z,1.24
2018-02-09T13:21:47.114Z,1.22
2018-02-09T13:22:57.091Z,1.18
2018-02-09T13:24:06.809Z,1.21
2018-02-09T13:25:16.282Z,1.21
2018-02-09T13:26:26.261Z,1.13
2018-02-09T13:27:36.310Z,1.16
2018-02-09T13:28:45.498Z,1.1
2018-02-09T13:29:55.213Z,1.1
2018-02-09T13:31:05.192Z,1.21
2018-02-09T13:32:14.643Z,1.14
2018-02-09T13:33:24.367Z,1.14
2018-02-09T13:34:34.346Z,1.12
2018-02-09T13:35:44.324Z,1.14
2018-02-09T13:36:54.309Z,1.07
2018-02-09T13:38:03.765Z,1.07
2018-02-09T13:39:13.688Z,1.03
2018-02-09T13:40:23.403Z,1.12
2018-02-09T13:41:33.388Z,1.09
2018-02-09T13:42:43.383Z,1.07
2018-02-09T13:43:53.369Z,1
2018-02-09T13:45:03.499Z,1.04
2018-02-09T13:46:13.479Z,1.06
2018-02-09T13:47:23.199Z,0.96
2018-02-09T13:48:32.652Z,1.03
2018-02-09T13:49:42.634Z,0.95
2018-02-09T13:50:52.671Z,0.99
2018-02-09T13:52:02.390Z,1.03
2018-02-09T13:53:11.843Z,0.99
2018-02-09T13:54:21.820Z,0.88
2018-02-09T13:55:31.537Z,1.03
2018-02-09T13:56:41.301Z,1.03
2018-02-09T13:57:51.304Z,0.94
2018-02-09T13:59:01.017Z,0.96
2018-02-09T14:00:10.474Z,0.92
2018-02-09T14:01:20.465Z,0.89
2018-02-09T14:02:30.446Z,0.95
2018-02-09T14:03:40.428Z,0.95
2018-02-09T14:04:49.351Z,0.95
2018-02-09T14:05:59.332Z,0.77
2018-02-09T14:07:09.053Z,0.94
2018-02-09T14:08:18.764Z,0.96
2018-02-09T14:09:28.215Z,0.88
2018-02-09T14:10:37.941Z,0.94
2018-02-09T14:11:47.927Z,0.89
2018-02-09T14:12:57.912Z,0.94
2018-02-09T14:14:07.687Z,0.89
2018-02-09T14:15:17.405Z,0.92
2018-02-09T14:16:27.126Z,0.94
2018-02-09T14:17:36.887Z,0.81
2018-02-09T14:18:46.902Z,0.85
2018-02-09T14:19:56.971Z,0.91
2018-02-09T14:21:06.976Z,0.88
2018-02-09T14:22:16.976Z,0.82
2018-02-09T14:23:26.692Z,0.85
2018-02-09T14:24:36.675Z,0.86
2018-02-09T14:25:46.496Z,0.85
2018-02-09T14:26:56.212Z,0.85
2018-02-09T14:28:05.927Z,0.81
2018-02-09T14:29:15.113Z,0.82
2018-02-09T14:30:25.094Z,0.77
2018-02-09T14:31:34.816Z,0.82
2018-02-09T14:32:44.525Z,0.81
2018-02-09T14:33:54.512Z,0.78
2018-02-09T14:35:04.488Z,0.81
2018-02-09T14:36:13.673Z,0.76
2018-02-09T14:37:23.654Z,0.81
2018-02-09T14:38:33.415Z,0.78
2018-02-09T14:39:43.395Z,0.78
2018-02-09T14:40:53.111Z,0.81
2018-02-09T14:42:03.105Z,0.92
2018-02-09T14:43:13.118Z,0.88
2018-02-09T14:44:23.102Z,0.86
2018-02-09T14:45:33.085Z,0.89
2018-02-09T14:46:43.112Z,0.86
2018-02-09T14:47:52.826Z,0.91
2018-02-09T14:49:02.650Z,0.84
2018-02-09T14:50:12.432Z,0.81
2018-02-09T14:51:22.422Z,0.81
2018-02-09T14:52:31.871Z,0.81
2018-02-09T14:53:41.588Z,0.84
2018-02-09T14:54:51.571Z,0.77
2018-02-09T14:56:01.294Z,0.82
2018-02-09T14:57:11.012Z,0.81
2018-02-09T14:58:20.737Z,0.85
2018-02-09T14:59:30.454Z,0.84
2018-02-09T15:00:40.284Z,0.77
2018-02-09T15:01:50.273Z,0.77
2018-02-09T15:03:00.258Z,0.76
2018-02-09T15:04:09.973Z,0.76
2018-02-09T15:05:19.955Z,0.73
2018-02-09T15:06:29.682Z,0.73
2018-02-09T15:07:39.667Z,0.76
2018-02-09T15:08:49.119Z,0.76
2018-02-09T15:09:58.847Z,0.81
2018-02-09T15:11:08.568Z,0.74
2018-02-09T15:12:18.017Z,0.77
2018-02-09T15:13:27.736Z,0.68
2018-02-09T15:14:37.718Z,0.7
2018-02-09T15:15:46.641Z,0.73
2018-02-09T15:16:56.361Z,0.7
2018-02-09T15:18:06.352Z,0.73
2018-02-09T15:19:16.069Z,0.67
2018-02-09T15:20:26.046Z,0.67
2018-02-09T15:21:35.494Z,0.61
2018-02-09T15:22:44.951Z,0.66
2018-02-09T15:23:54.932Z,0.56
2018-02-09T15:25:04.959Z,0.55